Decoded Metar for KEDE (EDENTON in NC, USA) (IATA:EDE) | Meteo·Mobile Aviation Weather
aviador You're here:

KEDE Decoded Metar

EDENTON in NC, USA
Report Time2019-04-23 16:20:00
UTC Time2019-04-23 16:44:00
Flight Rules vfr VFR
Wind220° at 04 kt
W.Decomp.*RWY 19: 3.1 kt HW 2.6 kt RCW
Visibility9999 m
Phenomena:N/A
Clouds:N/A
Expected CloudBase > 4,800 ft AGL from Temp-Dew spread
CeilingNone
Temp25°C (ISA +10)
Dew Point13°C (47% RH)
AAT24.5°C
QNH1019 hPa
Density Alt1,184 ft
Elevation20 ft
Report Wrong Elevation
Raw Report
METAR KEDE 231620Z AUTO 22004KT 10SM CLR 25/13 A3009 RMK AO2 T02460125=

Extra information for KEDE:More info

Metar Taf Metar & Taf Last 4 Metars F.Rules Stats Wind Profile Meteogram Temp Stats Airport Information Weather charts Add Link Nearby VenuesMetar ALERT Operation Metar Decoded Social comments

AIRNAV info for KEDE